sensor_id;sensor_type;location;lat;lon;timestamp;P1;durP1;ratioP1;P2;durP2;ratioP2
7154;SDS011;3619;53.784;10.440;2024-02-26T00:00:08;35.90;;;34.50;;
7154;SDS011;3619;53.784;10.440;2024-02-26T00:02:36;33.97;;;32.67;;
7154;SDS011;3619;53.784;10.440;2024-02-26T00:05:05;32.47;;;31.27;;
7154;SDS011;3619;53.784;10.440;2024-02-26T00:07:33;32.50;;;31.30;;
7154;SDS011;3619;53.784;10.440;2024-02-26T00:10:00;32.17;;;30.97;;
7154;SDS011;3619;53.784;10.440;2024-02-26T00:12:27;36.17;;;34.77;;
7154;SDS011;3619;53.784;10.440;2024-02-26T00:14:54;38.23;;;36.77;;
7154;SDS011;3619;53.784;10.440;2024-02-26T00:17:23;35.03;;;33.73;;
7154;SDS011;3619;53.784;10.440;2024-02-26T00:19:50;32.37;;;31.17;;
7154;SDS011;3619;53.784;10.440;2024-02-26T00:22:19;39.30;;;37.80;;
7154;SDS011;3619;53.784;10.440;2024-02-26T00:24:47;33.70;;;32.40;;
7154;SDS011;3619;53.784;10.440;2024-02-26T00:27:14;35.43;;;34.10;;
7154;SDS011;3619;53.784;10.440;2024-02-26T00:29:41;39.30;;;37.80;;
7154;SDS011;3619;53.784;10.440;2024-02-26T00:32:08;38.37;;;36.87;;
7154;SDS011;3619;53.784;10.440;2024-02-26T00:34:37;35.10;;;33.80;;
7154;SDS011;3619;53.784;10.440;2024-02-26T00:37:04;39.20;;;37.70;;
7154;SDS011;3619;53.784;10.440;2024-02-26T00:39:33;39.20;;;37.70;;
7154;SDS011;3619;53.784;10.440;2024-02-26T00:42:05;37.27;;;35.87;;
7154;SDS011;3619;53.784;10.440;2024-02-26T00:44:32;41.90;;;40.30;;
7154;SDS011;3619;53.784;10.440;2024-02-26T00:46:59;42.00;;;40.40;;
7154;SDS011;3619;53.784;10.440;2024-02-26T00:49:30;36.50;;;35.10;;
7154;SDS011;3619;53.784;10.440;2024-02-26T00:51:57;37.13;;;35.73;;
7154;SDS011;3619;53.784;10.440;2024-02-26T00:54:24;40.10;;;38.60;;
7154;SDS011;3619;53.784;10.440;2024-02-26T00:56:52;35.60;;;34.23;;
7154;SDS011;3619;53.784;10.440;2024-02-26T00:59:19;38.27;;;36.77;;
7154;SDS011;3619;53.784;10.440;2024-02-26T01:01:46;43.83;;;42.13;;
7154;SDS011;3619;53.784;10.440;2024-02-26T01:04:16;44.37;;;42.67;;
7154;SDS011;3619;53.784;10.440;2024-02-26T01:06:43;41.60;;;40.00;;
7154;SDS011;3619;53.784;10.440;2024-02-26T01:09:10;39.87;;;38.37;;
7154;SDS011;3619;53.784;10.440;2024-02-26T01:11:37;38.67;;;37.17;;
7154;SDS011;3619;53.784;10.440;2024-02-26T01:14:06;39.60;;;38.10;;
7154;SDS011;3619;53.784;10.440;2024-02-26T01:16:34;42.10;;;40.50;;
7154;SDS011;3619;53.784;10.440;2024-02-26T01:19:01;43.37;;;41.70;;
7154;SDS011;3619;53.784;10.440;2024-02-26T01:21:28;43.17;;;41.53;;
7154;SDS011;3619;53.784;10.440;2024-02-26T01:23:55;43.17;;;41.53;;
7154;SDS011;3619;53.784;10.440;2024-02-26T01:26:22;41.73;;;40.13;;
7154;SDS011;3619;53.784;10.440;2024-02-26T01:28:53;45.33;;;43.63;;
7154;SDS011;3619;53.784;10.440;2024-02-26T01:31:22;44.40;;;42.70;;
7154;SDS011;3619;53.784;10.440;2024-02-26T01:33:49;48.13;;;46.33;;
7154;SDS011;3619;53.784;10.440;2024-02-26T01:36:16;43.07;;;41.43;;
7154;SDS011;3619;53.784;10.440;2024-02-26T01:38:43;49.30;;;47.40;;
7154;SDS011;3619;53.784;10.440;2024-02-26T01:41:10;49.07;;;47.17;;
7154;SDS011;3619;53.784;10.440;2024-02-26T01:43:36;53.20;;;51.20;;
7154;SDS011;3619;53.784;10.440;2024-02-26T01:46:03;50.47;;;48.57;;
7154;SDS011;3619;53.784;10.440;2024-02-26T01:48:34;49.20;;;47.30;;
7154;SDS011;3619;53.784;10.440;2024-02-26T01:51:04;50.17;;;48.27;;
7154;SDS011;3619;53.784;10.440;2024-02-26T01:53:31;52.17;;;50.17;;
7154;SDS011;3619;53.784;10.440;2024-02-26T01:55:58;53.23;;;51.23;;
7154;SDS011;3619;53.784;10.440;2024-02-26T01:58:25;51.23;;;49.23;;
7154;SDS011;3619;53.784;10.440;2024-02-26T02:00:52;50.97;;;49.03;;
7154;SDS011;3619;53.784;10.440;2024-02-26T02:03:19;50.60;;;48.70;;
7154;SDS011;3619;53.784;10.440;2024-02-26T02:05:48;49.87;;;47.97;;
7154;SDS011;3619;53.784;10.440;2024-02-26T02:08:15;51.43;;;49.43;;
7154;SDS011;3619;53.784;10.440;2024-02-26T02:10:44;55.57;;;53.47;;
7154;SDS011;3619;53.784;10.440;2024-02-26T02:13:12;56.07;;;53.97;;
7154;SDS011;3619;53.784;10.440;2024-02-26T02:15:40;45.43;;;43.73;;
7154;SDS011;3619;53.784;10.440;2024-02-26T02:18:07;44.53;;;42.83;;
7154;SDS011;3619;53.784;10.440;2024-02-26T02:20:36;42.93;;;41.33;;
7154;SDS011;3619;53.784;10.440;2024-02-26T02:23:03;43.03;;;41.43;;
7154;SDS011;3619;53.784;10.440;2024-02-26T02:25:30;47.80;;;46.00;;
7154;SDS011;3619;53.784;10.440;2024-02-26T02:27:57;46.63;;;44.83;;
7154;SDS011;3619;53.784;10.440;2024-02-26T02:30:25;48.53;;;46.67;;
7154;SDS011;3619;53.784;10.440;2024-02-26T02:32:55;51.53;;;49.57;;
7154;SDS011;3619;53.784;10.440;2024-02-26T02:35:25;50.73;;;48.83;;
7154;SDS011;3619;53.784;10.440;2024-02-26T02:37:55;47.10;;;45.30;;
7154;SDS011;3619;53.784;10.440;2024-02-26T02:40:24;53.60;;;51.30;;
7154;SDS011;3619;53.784;10.440;2024-02-26T02:42:53;55.87;;;53.77;;
7154;SDS011;3619;53.784;10.440;2024-02-26T02:45:20;56.37;;;54.20;;
7154;SDS011;3619;53.784;10.440;2024-02-26T02:47:47;53.47;;;51.43;;
7154;SDS011;3619;53.784;10.440;2024-02-26T02:50:14;52.80;;;50.80;;
7154;SDS011;3619;53.784;10.440;2024-02-26T02:52:41;51.50;;;49.50;;
7154;SDS011;3619;53.784;10.440;2024-02-26T02:55:11;53.87;;;51.80;;
7154;SDS011;3619;53.784;10.440;2024-02-26T02:57:38;50.60;;;48.70;;
7154;SDS011;3619;53.784;10.440;2024-02-26T03:00:08;49.80;;;47.90;;
7154;SDS011;3619;53.784;10.440;2024-02-26T03:02:39;53.70;;;51.67;;
7154;SDS011;3619;53.784;10.440;2024-02-26T03:05:06;60.27;;;57.97;;
7154;SDS011;3619;53.784;10.440;2024-02-26T03:07:33;56.53;;;54.37;;
7154;SDS011;3619;53.784;10.440;2024-02-26T03:10:00;55.70;;;53.60;;
7154;SDS011;3619;53.784;10.440;2024-02-26T03:12:31;50.17;;;48.27;;
7154;SDS011;3619;53.784;10.440;2024-02-26T03:14:58;51.20;;;49.20;;
7154;SDS011;3619;53.784;10.440;2024-02-26T03:17:28;50.53;;;48.63;;
7154;SDS011;3619;53.784;10.440;2024-02-26T03:19:55;53.23;;;51.23;;
7154;SDS011;3619;53.784;10.440;2024-02-26T03:22:22;47.33;;;45.53;;
7154;SDS011;3619;53.784;10.440;2024-02-26T03:24:49;53.50;;;51.47;;
7154;SDS011;3619;53.784;10.440;2024-02-26T03:27:16;51.00;;;49.07;;
7154;SDS011;3619;53.784;10.440;2024-02-26T03:29:45;52.23;;;50.23;;
7154;SDS011;3619;53.784;10.440;2024-02-26T03:32:13;52.77;;;50.77;;
7154;SDS011;3619;53.784;10.440;2024-02-26T03:34:40;53.67;;;51.63;;
7154;SDS011;3619;53.784;10.440;2024-02-26T03:37:07;55.90;;;53.80;;
7154;SDS011;3619;53.784;10.440;2024-02-26T03:39:36;56.63;;;54.50;;
7154;SDS011;3619;53.784;10.440;2024-02-26T03:42:03;74.73;;;71.93;;
7154;SDS011;3619;53.784;10.440;2024-02-26T03:44:30;98.70;;;95.20;;
7154;SDS011;3619;53.784;10.440;2024-02-26T03:47:01;103.63;;;99.93;;
7154;SDS011;3619;53.784;10.440;2024-02-26T03:49:28;101.90;;;98.30;;
7154;SDS011;3619;53.784;10.440;2024-02-26T03:51:55;112.10;;;108.20;;
7154;SDS011;3619;53.784;10.440;2024-02-26T03:54:24;103.93;;;100.23;;
7154;SDS011;3619;53.784;10.440;2024-02-26T03:56:51;110.07;;;106.17;;
7154;SDS011;3619;53.784;10.440;2024-02-26T03:59:20;118.87;;;114.70;;
7154;SDS011;3619;53.784;10.440;2024-02-26T04:01:48;122.80;;;118.53;;
7154;SDS011;3619;53.784;10.440;2024-02-26T04:04:18;121.50;;;117.27;;
7154;SDS011;3619;53.784;10.440;2024-02-26T04:06:45;127.90;;;123.47;;
7154;SDS011;3619;53.784;10.440;2024-02-26T04:09:13;121.40;;;117.17;;
7154;SDS011;3619;53.784;10.440;2024-02-26T04:11:40;122.00;;;117.73;;
7154;SDS011;3619;53.784;10.440;2024-02-26T04:14:08;118.23;;;114.10;;
7154;SDS011;3619;53.784;10.440;2024-02-26T04:16:37;103.63;;;99.97;;
7154;SDS011;3619;53.784;10.440;2024-02-26T04:19:04;107.03;;;103.23;;
7154;SDS011;3619;53.784;10.440;2024-02-26T04:21:35;113.00;;;109.00;;
7154;SDS011;3619;53.784;10.440;2024-02-26T04:24:03;103.47;;;99.80;;
7154;SDS011;3619;53.784;10.440;2024-02-26T04:26:30;106.27;;;102.50;;
7154;SDS011;3619;53.784;10.440;2024-02-26T04:28:57;102.43;;;98.83;;
7154;SDS011;3619;53.784;10.440;2024-02-26T04:31:24;96.23;;;92.80;;
7154;SDS011;3619;53.784;10.440;2024-02-26T04:33:53;93.33;;;90.00;;
7154;SDS011;3619;53.784;10.440;2024-02-26T04:36:21;96.40;;;92.97;;
7154;SDS011;3619;53.784;10.440;2024-02-26T04:38:49;104.43;;;100.73;;
7154;SDS011;3619;53.784;10.440;2024-02-26T04:41:16;96.70;;;93.23;;
7154;SDS011;3619;53.784;10.440;2024-02-26T04:43:43;104.80;;;101.10;;
7154;SDS011;3619;53.784;10.440;2024-02-26T04:46:11;110.77;;;106.87;;
7154;SDS011;3619;53.784;10.440;2024-02-26T04:48:38;108.33;;;104.53;;
7154;SDS011;3619;53.784;10.440;2024-02-26T04:51:08;107.03;;;103.23;;
7154;SDS011;3619;53.784;10.440;2024-02-26T04:53:35;107.33;;;103.53;;
7154;SDS011;3619;53.784;10.440;2024-02-26T04:56:04;113.27;;;109.27;;
7154;SDS011;3619;53.784;10.440;2024-02-26T04:58:31;108.47;;;104.67;;
7154;SDS011;3619;53.784;10.440;2024-02-26T05:00:58;119.43;;;115.27;;
7154;SDS011;3619;53.784;10.440;2024-02-26T05:03:25;117.93;;;113.83;;
7154;SDS011;3619;53.784;10.440;2024-02-26T05:05:52;133.20;;;128.60;;
7154;SDS011;3619;53.784;10.440;2024-02-26T05:08:20;132.97;;;128.37;;
7154;SDS011;3619;53.784;10.440;2024-02-26T05:10:47;135.63;;;130.93;;
7154;SDS011;3619;53.784;10.440;2024-02-26T05:13:15;126.37;;;121.97;;
7154;SDS011;3619;53.784;10.440;2024-02-26T05:15:45;118.50;;;114.33;;
7154;SDS011;3619;53.784;10.440;2024-02-26T05:18:14;114.17;;;110.17;;
7154;SDS011;3619;53.784;10.440;2024-02-26T05:20:42;123.87;;;119.53;;
7154;SDS011;3619;53.784;10.440;2024-02-26T05:23:09;123.53;;;119.23;;
7154;SDS011;3619;53.784;10.440;2024-02-26T05:25:36;122.30;;;118.03;;
7154;SDS011;3619;53.784;10.440;2024-02-26T05:28:04;123.43;;;119.13;;
7154;SDS011;3619;53.784;10.440;2024-02-26T05:30:32;126.33;;;121.93;;
7154;SDS011;3619;53.784;10.440;2024-02-26T05:32:59;130.87;;;126.33;;
7154;SDS011;3619;53.784;10.440;2024-02-26T05:35:26;128.67;;;124.17;;
7154;SDS011;3619;53.784;10.440;2024-02-26T05:37:53;132.17;;;127.57;;
7154;SDS011;3619;53.784;10.440;2024-02-26T05:40:26;125.93;;;121.53;;
7154;SDS011;3619;53.784;10.440;2024-02-26T05:42:53;141.47;;;136.57;;
7154;SDS011;3619;53.784;10.440;2024-02-26T05:45:20;133.27;;;128.67;;
7154;SDS011;3619;53.784;10.440;2024-02-26T05:47:48;137.57;;;132.80;;
7154;SDS011;3619;53.784;10.440;2024-02-26T05:50:20;134.23;;;129.60;;
7154;SDS011;3619;53.784;10.440;2024-02-26T05:52:49;123.07;;;118.77;;
7154;SDS011;3619;53.784;10.440;2024-02-26T06:03:04;137.40;;;132.63;;
7154;SDS011;3619;53.784;10.440;2024-02-26T06:05:31;141.07;;;136.20;;
7154;SDS011;3619;53.784;10.440;2024-02-26T06:07:59;150.63;;;145.43;;
7154;SDS011;3619;53.784;10.440;2024-02-26T06:10:26;149.07;;;143.97;;
7154;SDS011;3619;53.784;10.440;2024-02-26T06:12:59;140.57;;;135.73;;
7154;SDS011;3619;53.784;10.440;2024-02-26T06:15:31;151.07;;;145.87;;
7154;SDS011;3619;53.784;10.440;2024-02-26T06:17:58;144.47;;;139.47;;
7154;SDS011;3619;53.784;10.440;2024-02-26T06:20:30;143.90;;;138.93;;
7154;SDS011;3619;53.784;10.440;2024-02-26T06:23:01;156.70;;;151.33;;
7154;SDS011;3619;53.784;10.440;2024-02-26T06:25:30;154.23;;;148.93;;
7154;SDS011;3619;53.784;10.440;2024-02-26T06:27:57;155.53;;;150.23;;
7154;SDS011;3619;53.784;10.440;2024-02-26T06:30:24;152.70;;;147.47;;
7154;SDS011;3619;53.784;10.440;2024-02-26T06:32:54;146.63;;;141.57;;
7154;SDS011;3619;53.784;10.440;2024-02-26T06:35:24;146.90;;;141.83;;
7154;SDS011;3619;53.784;10.440;2024-02-26T06:37:52;147.83;;;142.73;;
7154;SDS011;3619;53.784;10.440;2024-02-26T06:40:24;136.37;;;131.63;;
7154;SDS011;3619;53.784;10.440;2024-02-26T06:42:52;151.90;;;146.67;;
7154;SDS011;3619;53.784;10.440;2024-02-26T06:45:19;145.00;;;140.00;;
7154;SDS011;3619;53.784;10.440;2024-02-26T06:47:46;133.47;;;128.80;;
7154;SDS011;3619;53.784;10.440;2024-02-26T06:50:16;136.40;;;131.67;;
7154;SDS011;3619;53.784;10.440;2024-02-26T07:03:04;140.67;;;135.83;;
7154;SDS011;3619;53.784;10.440;2024-02-26T07:05:36;151.60;;;146.40;;
7154;SDS011;3619;53.784;10.440;2024-02-26T07:08:06;135.03;;;130.33;;
7154;SDS011;3619;53.784;10.440;2024-02-26T07:10:33;143.57;;;138.57;;
7154;SDS011;3619;53.784;10.440;2024-02-26T07:13:03;155.60;;;150.30;;
7154;SDS011;3619;53.784;10.440;2024-02-26T07:15:30;130.10;;;125.60;;
7154;SDS011;3619;53.784;10.440;2024-02-26T07:17:58;142.63;;;137.73;;
7154;SDS011;3619;53.784;10.440;2024-02-26T07:20:30;136.03;;;131.33;;
7154;SDS011;3619;53.784;10.440;2024-02-26T07:22:57;132.27;;;127.67;;
7154;SDS011;3619;53.784;10.440;2024-02-26T07:25:24;126.53;;;122.13;;
7154;SDS011;3619;53.784;10.440;2024-02-26T07:27:51;118.27;;;114.10;;
7154;SDS011;3619;53.784;10.440;2024-02-26T07:30:19;135.13;;;130.43;;
7154;SDS011;3619;53.784;10.440;2024-02-26T07:32:46;130.20;;;125.70;;
7154;SDS011;3619;53.784;10.440;2024-02-26T07:35:14;135.37;;;130.67;;
7154;SDS011;3619;53.784;10.440;2024-02-26T07:37:56;136.00;;;131.30;;
7154;SDS011;3619;53.784;10.440;2024-02-26T07:40:23;126.77;;;122.37;;
7154;SDS011;3619;53.784;10.440;2024-02-26T07:42:52;121.67;;;117.37;;
7154;SDS011;3619;53.784;10.440;2024-02-26T07:45:19;123.63;;;119.33;;
7154;SDS011;3619;53.784;10.440;2024-02-26T07:47:46;123.73;;;119.37;;
7154;SDS011;3619;53.784;10.440;2024-02-26T07:50:13;126.57;;;122.17;;
7154;SDS011;3619;53.784;10.440;2024-02-26T07:52:40;134.40;;;129.70;;
7154;SDS011;3619;53.784;10.440;2024-02-26T07:55:11;129.97;;;125.47;;
7154;SDS011;3619;53.784;10.440;2024-02-26T07:57:41;134.33;;;129.70;;
7154;SDS011;3619;53.784;10.440;2024-02-26T08:00:09;132.43;;;127.83;;
7154;SDS011;3619;53.784;10.440;2024-02-26T08:02:37;138.67;;;133.87;;
7154;SDS011;3619;53.784;10.440;2024-02-26T08:05:04;121.53;;;117.30;;
7154;SDS011;3619;53.784;10.440;2024-02-26T08:07:32;123.43;;;119.13;;
7154;SDS011;3619;53.784;10.440;2024-02-26T08:09:58;125.70;;;121.30;;
7154;SDS011;3619;53.784;10.440;2024-02-26T08:12:27;139.73;;;134.93;;
7154;SDS011;3619;53.784;10.440;2024-02-26T08:14:54;134.80;;;130.10;;
7154;SDS011;3619;53.784;10.440;2024-02-26T08:17:21;130.80;;;126.27;;
7154;SDS011;3619;53.784;10.440;2024-02-26T08:19:48;121.57;;;117.33;;
7154;SDS011;3619;53.784;10.440;2024-02-26T08:22:15;121.57;;;117.33;;
7154;SDS011;3619;53.784;10.440;2024-02-26T08:24:42;131.90;;;127.30;;
7154;SDS011;3619;53.784;10.440;2024-02-26T08:27:10;123.70;;;119.37;;
7154;SDS011;3619;53.784;10.440;2024-02-26T08:29:41;125.43;;;121.03;;
7154;SDS011;3619;53.784;10.440;2024-02-26T08:32:08;123.13;;;118.83;;
7154;SDS011;3619;53.784;10.440;2024-02-26T08:34:39;130.23;;;125.73;;
7154;SDS011;3619;53.784;10.440;2024-02-26T08:37:11;134.40;;;129.70;;
7154;SDS011;3619;53.784;10.440;2024-02-26T08:39:51;126.67;;;122.27;;
7154;SDS011;3619;53.784;10.440;2024-02-26T08:42:22;117.10;;;113.00;;
7154;SDS011;3619;53.784;10.440;2024-02-26T08:44:52;114.30;;;110.30;;
7154;SDS011;3619;53.784;10.440;2024-02-26T08:47:27;107.47;;;103.67;;
7154;SDS011;3619;53.784;10.440;2024-02-26T08:49:54;116.30;;;112.20;;
7154;SDS011;3619;53.784;10.440;2024-02-26T08:52:21;115.40;;;111.33;;
7154;SDS011;3619;53.784;10.440;2024-02-26T08:54:49;117.00;;;112.90;;
7154;SDS011;3619;53.784;10.440;2024-02-26T08:57:16;110.33;;;106.43;;
7154;SDS011;3619;53.784;10.440;2024-02-26T08:59:48;114.63;;;110.63;;
7154;SDS011;3619;53.784;10.440;2024-02-26T09:02:16;106.77;;;102.97;;
7154;SDS011;3619;53.784;10.440;2024-02-26T09:04:46;108.93;;;105.10;;
7154;SDS011;3619;53.784;10.440;2024-02-26T09:07:18;119.57;;;115.37;;
7154;SDS011;3619;53.784;10.440;2024-02-26T09:09:50;110.70;;;106.80;;
7154;SDS011;3619;53.784;10.440;2024-02-26T09:12:19;102.60;;;98.97;;
7154;SDS011;3619;53.784;10.440;2024-02-26T09:14:47;104.47;;;100.77;;
7154;SDS011;3619;53.784;10.440;2024-02-26T09:17:14;102.43;;;98.77;;
7154;SDS011;3619;53.784;10.440;2024-02-26T09:19:42;105.13;;;101.43;;
7154;SDS011;3619;53.784;10.440;2024-02-26T09:22:10;99.90;;;96.33;;
7154;SDS011;3619;53.784;10.440;2024-02-26T09:24:38;101.77;;;98.17;;
7154;SDS011;3619;53.784;10.440;2024-02-26T09:27:07;89.03;;;85.83;;
7154;SDS011;3619;53.784;10.440;2024-02-26T09:29:37;93.23;;;89.83;;
7154;SDS011;3619;53.784;10.440;2024-02-26T09:32:31;80.03;;;77.07;;
7154;SDS011;3619;53.784;10.440;2024-02-26T09:35:11;84.07;;;80.97;;
7154;SDS011;3619;53.784;10.440;2024-02-26T09:37:43;86.90;;;83.73;;
7154;SDS011;3619;53.784;10.440;2024-02-26T09:40:14;82.13;;;79.13;;
7154;SDS011;3619;53.784;10.440;2024-02-26T09:42:56;75.57;;;72.77;;
7154;SDS011;3619;53.784;10.440;2024-02-26T09:45:43;80.83;;;77.83;;
7154;SDS011;3619;53.784;10.440;2024-02-26T09:48:20;78.37;;;75.47;;
7154;SDS011;3619;53.784;10.440;2024-02-26T09:54:26;69.97;;;67.37;;
7154;SDS011;3619;53.784;10.440;2024-02-26T09:56:57;68.30;;;65.70;;
7154;SDS011;3619;53.784;10.440;2024-02-26T10:00:03;71.93;;;69.23;;
7154;SDS011;3619;53.784;10.440;2024-02-26T10:06:03;75.20;;;72.40;;
7154;SDS011;3619;53.784;10.440;2024-02-26T12:31:05;75.53;;;72.73;;
7154;SDS011;3619;53.784;10.440;2024-02-26T14:50:42;79.50;;;76.57;;
7154;SDS011;3619;53.784;10.440;2024-02-26T14:53:09;76.80;;;74.00;;
7154;SDS011;3619;53.784;10.440;2024-02-26T14:55:36;78.50;;;75.60;;
7154;SDS011;3619;53.784;10.440;2024-02-26T14:58:03;82.17;;;79.17;;
7154;SDS011;3619;53.784;10.440;2024-02-26T15:00:36;82.23;;;79.23;;
7154;SDS011;3619;53.784;10.440;2024-02-26T15:03:03;89.43;;;86.20;;
7154;SDS011;3619;53.784;10.440;2024-02-26T15:05:31;93.43;;;90.10;;
7154;SDS011;3619;53.784;10.440;2024-02-26T15:08:00;98.60;;;95.10;;
7154;SDS011;3619;53.784;10.440;2024-02-26T15:10:27;84.87;;;81.77;;
7154;SDS011;3619;53.784;10.440;2024-02-26T15:12:55;84.97;;;81.87;;
7154;SDS011;3619;53.784;10.440;2024-02-26T15:15:23;91.10;;;87.80;;
7154;SDS011;3619;53.784;10.440;2024-02-26T15:17:52;96.77;;;93.27;;
7154;SDS011;3619;53.784;10.440;2024-02-26T15:20:22;95.43;;;92.03;;
7154;SDS011;3619;53.784;10.440;2024-02-26T15:22:50;96.73;;;93.27;;
7154;SDS011;3619;53.784;10.440;2024-02-26T15:25:18;101.53;;;97.93;;
7154;SDS011;3619;53.784;10.440;2024-02-26T15:27:45;96.93;;;93.47;;
7154;SDS011;3619;53.784;10.440;2024-02-26T15:30:15;99.00;;;95.50;;
7154;SDS011;3619;53.784;10.440;2024-02-26T15:32:45;94.90;;;91.50;;
7154;SDS011;3619;53.784;10.440;2024-02-26T15:35:18;96.10;;;92.67;;
7154;SDS011;3619;53.784;10.440;2024-02-26T15:37:50;87.17;;;83.97;;
7154;SDS011;3619;53.784;10.440;2024-02-26T15:40:21;103.03;;;99.37;;
7154;SDS011;3619;53.784;10.440;2024-02-26T15:45:32;99.97;;;96.40;;
7154;SDS011;3619;53.784;10.440;2024-02-26T15:47:59;101.67;;;98.07;;
7154;SDS011;3619;53.784;10.440;2024-02-26T15:50:26;106.30;;;102.53;;
7154;SDS011;3619;53.784;10.440;2024-02-26T15:52:54;99.20;;;95.67;;
7154;SDS011;3619;53.784;10.440;2024-02-26T15:57:57;104.93;;;101.23;;
7154;SDS011;3619;53.784;10.440;2024-02-26T16:26:19;110.40;;;106.50;;
7154;SDS011;3619;53.784;10.440;2024-02-26T16:31:22;115.90;;;111.83;;
7154;SDS011;3619;53.784;10.440;2024-02-26T17:12:39;128.40;;;123.97;;
7154;SDS011;3619;53.784;10.440;2024-02-26T17:15:18;123.50;;;119.20;;
7154;SDS011;3619;53.784;10.440;2024-02-26T17:33:21;127.50;;;123.10;;
7154;SDS011;3619;53.784;10.440;2024-02-26T17:40:59;133.17;;;128.57;;
7154;SDS011;3619;53.784;10.440;2024-02-26T17:43:28;137.13;;;132.40;;
7154;SDS011;3619;53.784;10.440;2024-02-26T17:45:55;130.07;;;125.57;;
7154;SDS011;3619;53.784;10.440;2024-02-26T17:48:26;130.23;;;125.73;;
7154;SDS011;3619;53.784;10.440;2024-02-26T17:50:54;141.40;;;136.50;;
7154;SDS011;3619;53.784;10.440;2024-02-26T17:58:37;140.37;;;135.50;;
7154;SDS011;3619;53.784;10.440;2024-02-26T18:01:09;142.50;;;137.60;;
7154;SDS011;3619;53.784;10.440;2024-02-26T18:03:37;140.27;;;135.40;;
7154;SDS011;3619;53.784;10.440;2024-02-26T18:06:10;136.77;;;132.07;;
7154;SDS011;3619;53.784;10.440;2024-02-26T18:08:42;141.53;;;136.63;;
7154;SDS011;3619;53.784;10.440;2024-02-26T18:11:14;144.10;;;139.13;;
7154;SDS011;3619;53.784;10.440;2024-02-26T18:13:41;141.67;;;136.77;;
7154;SDS011;3619;53.784;10.440;2024-02-26T18:16:11;141.10;;;136.20;;
7154;SDS011;3619;53.784;10.440;2024-02-26T18:18:42;144.93;;;139.93;;
7154;SDS011;3619;53.784;10.440;2024-02-26T18:21:15;145.10;;;140.10;;
7154;SDS011;3619;53.784;10.440;2024-02-26T18:23:54;148.03;;;142.93;;
7154;SDS011;3619;53.784;10.440;2024-02-26T18:26:23;142.53;;;137.63;;
7154;SDS011;3619;53.784;10.440;2024-02-26T18:28:50;152.87;;;147.60;;
7154;SDS011;3619;53.784;10.440;2024-02-26T18:31:17;148.63;;;143.53;;
7154;SDS011;3619;53.784;10.440;2024-02-26T18:33:53;138.43;;;133.63;;
7154;SDS011;3619;53.784;10.440;2024-02-26T18:36:24;145.50;;;140.50;;
7154;SDS011;3619;53.784;10.440;2024-02-26T18:44:45;138.53;;;133.73;;
7154;SDS011;3619;53.784;10.440;2024-02-26T18:47:13;136.50;;;131.80;;
7154;SDS011;3619;53.784;10.440;2024-02-26T18:49:43;139.23;;;134.43;;
7154;SDS011;3619;53.784;10.440;2024-02-26T18:52:10;144.07;;;139.10;;
7154;SDS011;3619;53.784;10.440;2024-02-26T18:54:37;145.33;;;140.33;;
7154;SDS011;3619;53.784;10.440;2024-02-26T18:59:53;147.20;;;142.13;;
7154;SDS011;3619;53.784;10.440;2024-02-26T19:02:20;142.73;;;137.77;;
7154;SDS011;3619;53.784;10.440;2024-02-26T19:04:49;143.70;;;138.77;;
7154;SDS011;3619;53.784;10.440;2024-02-26T19:07:22;140.63;;;135.73;;
7154;SDS011;3619;53.784;10.440;2024-02-26T19:09:49;150.03;;;144.87;;
7154;SDS011;3619;53.784;10.440;2024-02-26T19:27:50;147.70;;;142.60;;
7154;SDS011;3619;53.784;10.440;2024-02-26T19:30:17;155.20;;;149.90;;
7154;SDS011;3619;53.784;10.440;2024-02-26T19:32:45;172.20;;;166.40;;
7154;SDS011;3619;53.784;10.440;2024-02-26T19:35:13;160.20;;;154.70;;
7154;SDS011;3619;53.784;10.440;2024-02-26T19:37:40;165.37;;;159.77;;
7154;SDS011;3619;53.784;10.440;2024-02-26T19:40:08;156.57;;;151.20;;
7154;SDS011;3619;53.784;10.440;2024-02-26T19:42:37;156.33;;;151.00;;
7154;SDS011;3619;53.784;10.440;2024-02-26T19:45:08;174.13;;;168.23;;
7154;SDS011;3619;53.784;10.440;2024-02-26T19:47:37;174.57;;;168.67;;
7154;SDS011;3619;53.784;10.440;2024-02-26T19:50:05;173.40;;;167.57;;
7154;SDS011;3619;53.784;10.440;2024-02-26T19:52:33;173.40;;;167.53;;
7154;SDS011;3619;53.784;10.440;2024-02-26T19:55:01;160.03;;;154.60;;
7154;SDS011;3619;53.784;10.440;2024-02-26T19:57:29;155.33;;;150.03;;
7154;SDS011;3619;53.784;10.440;2024-02-26T19:59:56;169.00;;;163.27;;
7154;SDS011;3619;53.784;10.440;2024-02-26T20:02:25;158.27;;;152.87;;
7154;SDS011;3619;53.784;10.440;2024-02-26T20:04:52;136.90;;;132.13;;
7154;SDS011;3619;53.784;10.440;2024-02-26T20:07:20;141.17;;;136.27;;
7154;SDS011;3619;53.784;10.440;2024-02-26T20:09:47;139.03;;;134.23;;
7154;SDS011;3619;53.784;10.440;2024-02-26T20:12:14;143.27;;;138.30;;
7154;SDS011;3619;53.784;10.440;2024-02-26T20:14:41;114.17;;;110.13;;
7154;SDS011;3619;53.784;10.440;2024-02-26T20:17:09;125.60;;;121.20;;
7154;SDS011;3619;53.784;10.440;2024-02-26T20:19:38;123.53;;;119.23;;
7154;SDS011;3619;53.784;10.440;2024-02-26T20:22:08;119.53;;;115.33;;
7154;SDS011;3619;53.784;10.440;2024-02-26T20:24:36;123.17;;;118.87;;
7154;SDS011;3619;53.784;10.440;2024-02-26T20:27:03;117.40;;;113.30;;
7154;SDS011;3619;53.784;10.440;2024-02-26T20:29:35;112.90;;;108.90;;
7154;SDS011;3619;53.784;10.440;2024-02-26T20:32:03;111.63;;;107.67;;
7154;SDS011;3619;53.784;10.440;2024-02-26T20:34:31;106.87;;;103.07;;
7154;SDS011;3619;53.784;10.440;2024-02-26T20:37:00;107.30;;;103.50;;
7154;SDS011;3619;53.784;10.440;2024-02-26T20:39:27;111.27;;;107.37;;
7154;SDS011;3619;53.784;10.440;2024-02-26T20:41:55;108.47;;;104.63;;
7154;SDS011;3619;53.784;10.440;2024-02-26T20:44:22;111.23;;;107.33;;
7154;SDS011;3619;53.784;10.440;2024-02-26T20:46:50;100.70;;;97.10;;
7154;SDS011;3619;53.784;10.440;2024-02-26T20:49:20;94.23;;;90.83;;
7154;SDS011;3619;53.784;10.440;2024-02-26T20:51:48;103.83;;;100.13;;
7154;SDS011;3619;53.784;10.440;2024-02-26T20:54:16;106.50;;;102.70;;
7154;SDS011;3619;53.784;10.440;2024-02-26T20:56:43;108.33;;;104.53;;
7154;SDS011;3619;53.784;10.440;2024-02-26T20:59:14;103.23;;;99.53;;
7154;SDS011;3619;53.784;10.440;2024-02-26T21:01:43;96.43;;;92.93;;
7154;SDS011;3619;53.784;10.440;2024-02-26T21:04:10;102.33;;;98.70;;
7154;SDS011;3619;53.784;10.440;2024-02-26T21:06:37;106.63;;;102.83;;
7154;SDS011;3619;53.784;10.440;2024-02-26T21:09:04;94.47;;;91.07;;
7154;SDS011;3619;53.784;10.440;2024-02-26T21:11:38;85.90;;;82.80;;
7154;SDS011;3619;53.784;10.440;2024-02-26T21:14:06;92.33;;;88.93;;
7154;SDS011;3619;53.784;10.440;2024-02-26T21:16:36;78.90;;;76.00;;
7154;SDS011;3619;53.784;10.440;2024-02-26T21:19:03;92.67;;;89.33;;
7154;SDS011;3619;53.784;10.440;2024-02-26T21:21:32;85.20;;;82.10;;
7154;SDS011;3619;53.784;10.440;2024-02-26T21:24:00;82.10;;;79.10;;
7154;SDS011;3619;53.784;10.440;2024-02-26T21:26:27;82.03;;;79.03;;
7154;SDS011;3619;53.784;10.440;2024-02-26T21:28:56;81.57;;;78.57;;
7154;SDS011;3619;53.784;10.440;2024-02-26T21:31:23;83.03;;;80.00;;
7154;SDS011;3619;53.784;10.440;2024-02-26T21:33:50;85.97;;;82.87;;
7154;SDS011;3619;53.784;10.440;2024-02-26T21:36:18;88.40;;;85.20;;